createdAt,value
2018-07-08T00:01:16.417Z,86.00
2018-07-08T00:03:44.544Z,86.00
2018-07-08T00:06:12.644Z,86.00
2018-07-08T00:08:40.807Z,86.20
2018-07-08T00:13:39.742Z,86.50
2018-07-08T00:16:07.862Z,86.70
2018-07-08T00:18:35.938Z,86.80
2018-07-08T00:21:04.088Z,86.90
2018-07-08T00:23:32.153Z,87.00
2018-07-08T00:26:02.456Z,87.20
2018-07-08T00:28:30.506Z,87.40
2018-07-08T00:30:58.556Z,87.60
2018-07-08T00:33:26.676Z,87.90
2018-07-08T00:35:54.713Z,88.20
2018-07-08T00:38:22.797Z,88.40
2018-07-08T00:40:50.839Z,88.20
2018-07-08T00:43:18.905Z,88.20
2018-07-08T00:45:46.943Z,88.50
2018-07-08T00:48:15.042Z,88.40
2018-07-08T00:53:10.980Z,88.50
2018-07-08T00:55:39.029Z,88.50
2018-07-08T00:58:07.145Z,88.60
2018-07-08T01:00:38.068Z,88.70
2018-07-08T01:03:08.205Z,88.60
2018-07-08T01:05:36.473Z,88.40
2018-07-08T01:10:32.613Z,88.30
2018-07-08T01:13:01.501Z,88.20
2018-07-08T01:15:29.545Z,88.20
2018-07-08T01:17:57.704Z,88.20
2018-07-08T01:20:25.748Z,88.30
2018-07-08T01:22:54.216Z,88.40
2018-07-08T01:25:33.934Z,88.60
2018-07-08T01:28:01.989Z,88.80
2018-07-08T01:30:30.068Z,89.00
2018-07-08T01:32:58.134Z,89.20
2018-07-08T01:35:26.224Z,89.50
2018-07-08T01:37:54.289Z,89.90
2018-07-08T01:40:22.308Z,90.00
2018-07-08T01:42:50.387Z,90.00
2018-07-08T01:45:18.453Z,90.00
2018-07-08T01:47:46.489Z,90.00
2018-07-08T01:50:14.568Z,90.00
2018-07-08T01:52:42.637Z,90.00
2018-07-08T01:55:10.696Z,90.00
2018-07-08T01:57:38.801Z,90.10
2018-07-08T02:00:07.184Z,90.10
2018-07-08T02:02:36.113Z,90.10
2018-07-08T02:05:04.182Z,90.20
2018-07-08T02:07:32.230Z,90.20
2018-07-08T02:10:00.408Z,90.20
2018-07-08T02:12:28.480Z,90.30
2018-07-08T02:14:56.560Z,90.30
2018-07-08T02:17:24.581Z,90.30
2018-07-08T02:19:52.657Z,90.30
2018-07-08T02:22:20.724Z,90.40
2018-07-08T02:24:48.774Z,90.50
2018-07-08T02:27:16.856Z,90.70
2018-07-08T02:29:45.304Z,90.70
2018-07-08T02:34:41.272Z,90.70
2018-07-08T02:37:09.321Z,90.70
2018-07-08T02:39:37.382Z,90.70
2018-07-08T02:42:05.622Z,90.80
2018-07-08T02:44:33.668Z,91.10
2018-07-08T02:47:01.776Z,90.80
2018-07-08T02:49:30.297Z,90.70
2018-07-08T02:51:58.416Z,90.70
2018-07-08T02:54:26.496Z,90.80
2018-07-08T02:56:54.576Z,90.80
2018-07-08T02:59:22.637Z,90.80
2018-07-08T03:01:50.702Z,90.80
2018-07-08T03:04:18.783Z,90.80
2018-07-08T03:06:46.876Z,90.80
2018-07-08T03:09:14.932Z,90.80
2018-07-08T03:11:42.978Z,90.90
2018-07-08T03:14:11.041Z,90.90
2018-07-08T03:16:39.124Z,90.90
2018-07-08T03:19:07.169Z,90.90
2018-07-08T03:21:35.259Z,91.20
2018-07-08T03:24:03.312Z,90.90
2018-07-08T03:26:31.406Z,90.80
2018-07-08T03:28:59.465Z,90.70
2018-07-08T03:31:27.525Z,90.70
2018-07-08T03:33:55.737Z,90.60
2018-07-08T03:36:23.785Z,90.60
2018-07-08T03:38:51.833Z,90.50
2018-07-08T03:41:19.901Z,90.40
2018-07-08T03:43:47.942Z,90.70
2018-07-08T03:46:16.099Z,90.40
2018-07-08T03:48:44.157Z,90.40
2018-07-08T03:51:12.194Z,90.40
2018-07-08T03:53:40.276Z,90.40
2018-07-08T03:56:08.628Z,90.40
2018-07-08T03:58:36.772Z,90.40
2018-07-08T04:01:04.823Z,90.30
2018-07-08T04:03:32.861Z,90.30
2018-07-08T04:06:00.913Z,90.30
2018-07-08T04:08:28.980Z,90.30
2018-07-08T04:10:57.022Z,90.20
2018-07-08T04:13:25.102Z,90.10
2018-07-08T04:15:53.185Z,90.00
2018-07-08T04:20:48.313Z,90.30
2018-07-08T04:23:16.372Z,89.80
2018-07-08T04:25:44.417Z,90.10
2018-07-08T04:28:12.496Z,89.80
2018-07-08T04:30:40.548Z,89.80
2018-07-08T04:33:08.636Z,89.50
2018-07-08T04:35:36.697Z,89.40
2018-07-08T04:38:05.208Z,89.30
2018-07-08T04:40:33.231Z,89.20
2018-07-08T04:43:01.273Z,89.00
2018-07-08T04:45:29.345Z,88.80
2018-07-08T04:47:57.438Z,88.70
2018-07-08T04:50:25.656Z,88.60
2018-07-08T04:52:53.750Z,88.80
2018-07-08T04:55:21.957Z,88.60
2018-07-08T04:57:50.005Z,88.50
2018-07-08T05:00:18.145Z,89.40
2018-07-08T05:02:46.229Z,88.80
2018-07-08T05:07:43.297Z,88.90
2018-07-08T05:10:11.480Z,88.90
2018-07-08T05:12:39.615Z,88.70
2018-07-08T05:15:07.676Z,88.70
2018-07-08T05:17:35.749Z,88.60
2018-07-08T05:20:03.822Z,88.70
2018-07-08T05:22:32.893Z,88.30
2018-07-08T05:27:29.105Z,88.20
2018-07-08T05:29:57.173Z,88.10
2018-07-08T05:32:25.225Z,88.00
2018-07-08T05:34:53.296Z,88.00
2018-07-08T05:37:21.471Z,87.80
2018-07-08T05:39:49.485Z,87.60
2018-07-08T05:42:17.537Z,87.20
2018-07-08T05:44:45.604Z,87.00
2018-07-08T05:47:13.645Z,87.10
2018-07-08T05:49:41.702Z,86.80
2018-07-08T05:52:09.775Z,86.40
2018-07-08T05:54:37.875Z,86.40
2018-07-08T05:59:33.911Z,86.10
2018-07-08T06:02:01.966Z,85.90
2018-07-08T06:04:30.042Z,85.60
2018-07-08T06:06:58.237Z,85.50
2018-07-08T06:09:26.301Z,84.80
2018-07-08T06:11:55.425Z,84.10
2018-07-08T06:14:23.780Z,83.60
2018-07-08T06:16:52.069Z,83.70
2018-07-08T06:19:20.190Z,82.90
2018-07-08T06:21:48.269Z,82.60
2018-07-08T06:24:16.320Z,81.80
2018-07-08T06:26:44.417Z,81.00
2018-07-08T06:29:12.449Z,80.50
2018-07-08T06:31:40.504Z,79.70
2018-07-08T06:34:08.553Z,78.80
2018-07-08T06:36:36.634Z,78.90
2018-07-08T06:39:05.891Z,78.80
2018-07-08T06:41:33.912Z,78.80
2018-07-08T06:44:01.984Z,77.70
2018-07-08T06:46:30.061Z,76.60
2018-07-08T06:48:58.116Z,75.80
2018-07-08T06:51:26.192Z,74.80
2018-07-08T06:53:54.229Z,74.30
2018-07-08T06:56:22.285Z,74.20
2018-07-08T06:58:50.365Z,74.20
2018-07-08T07:01:18.425Z,74.50
2018-07-08T07:03:46.546Z,73.40
2018-07-08T07:06:14.601Z,73.00
2018-07-08T07:08:42.912Z,71.80
2018-07-08T07:11:11.005Z,70.60
2018-07-08T07:13:39.120Z,69.90
2018-07-08T07:16:07.203Z,70.20
2018-07-08T07:18:35.425Z,69.80
2018-07-08T07:21:03.538Z,70.00
2018-07-08T07:23:31.718Z,69.30
2018-07-08T07:25:59.784Z,68.40
2018-07-08T07:28:27.906Z,67.80
2018-07-08T07:30:55.920Z,66.50
2018-07-08T07:33:23.988Z,65.60
2018-07-08T07:35:52.305Z,65.20
2018-07-08T07:38:20.388Z,64.90
2018-07-08T07:40:48.529Z,64.10
2018-07-08T07:43:16.721Z,62.20
2018-07-08T07:45:44.752Z,60.30
2018-07-08T07:48:12.889Z,58.90
2018-07-08T07:50:40.920Z,58.70
2018-07-08T07:53:08.968Z,57.90
2018-07-08T07:55:37.120Z,56.90
2018-07-08T07:58:06.184Z,55.90
2018-07-08T08:00:34.240Z,55.00
2018-07-08T08:03:02.292Z,54.10
2018-07-08T08:05:30.380Z,52.60
2018-07-08T08:07:58.419Z,50.90
2018-07-08T08:10:26.496Z,50.10
2018-07-08T08:12:54.568Z,49.60
2018-07-08T08:15:22.791Z,48.90
2018-07-08T08:17:51.212Z,48.40
2018-07-08T08:20:19.297Z,48.30
2018-07-08T08:22:47.360Z,50.00
2018-07-08T08:27:43.326Z,47.60
2018-07-08T08:30:11.386Z,47.50
2018-07-08T08:32:39.470Z,47.00
2018-07-08T08:35:13.013Z,47.30
2018-07-08T08:37:43.173Z,46.60
2018-07-08T08:40:11.806Z,46.60
2018-07-08T08:42:39.896Z,46.60
2018-07-08T08:45:09.132Z,46.90
2018-07-08T08:47:37.240Z,46.60
2018-07-08T08:50:05.949Z,46.30
2018-07-08T08:52:34.082Z,46.40
2018-07-08T08:55:02.057Z,46.40
2018-07-08T08:57:30.125Z,46.10
2018-07-08T08:59:58.173Z,45.80
2018-07-08T09:02:26.262Z,45.80
2018-07-08T09:04:54.317Z,45.70
2018-07-08T09:07:22.849Z,46.20
2018-07-08T09:09:50.962Z,46.10
2018-07-08T09:12:19.109Z,44.70
2018-07-08T09:14:47.170Z,45.00
2018-07-08T09:17:15.273Z,45.40
2018-07-08T09:19:43.287Z,45.60
2018-07-08T09:22:11.618Z,45.90
2018-07-08T09:24:39.729Z,45.30
2018-07-08T09:27:07.965Z,45.50
2018-07-08T09:29:36.052Z,44.50
2018-07-08T09:32:04.108Z,44.40
2018-07-08T09:34:32.145Z,44.60
2018-07-08T09:37:00.234Z,44.30
2018-07-08T09:39:28.277Z,44.60
2018-07-08T09:41:56.372Z,45.00
2018-07-08T09:44:24.392Z,44.00
2018-07-08T09:46:52.445Z,44.40
2018-07-08T09:49:20.494Z,44.50
2018-07-08T09:51:48.805Z,44.00
2018-07-08T09:54:16.896Z,43.80
2018-07-08T09:56:44.939Z,43.60
2018-07-08T09:59:12.981Z,43.60
2018-07-08T10:01:48.720Z,43.30
2018-07-08T10:06:46.824Z,43.00
2018-07-08T10:09:16.216Z,42.80
2018-07-08T10:11:44.403Z,42.80
2018-07-08T10:14:14.640Z,42.60
2018-07-08T10:16:43.089Z,42.90
2018-07-08T10:19:12.123Z,42.80
2018-07-08T10:21:40.223Z,42.90
2018-07-08T10:24:08.561Z,43.30
2018-07-08T10:26:36.725Z,43.40
2018-07-08T10:29:05.425Z,43.50
2018-07-08T10:31:46.073Z,43.40
2018-07-08T10:34:14.122Z,43.80
2018-07-08T10:36:42.162Z,43.70
2018-07-08T10:41:39.700Z,43.50
2018-07-08T10:44:07.851Z,43.50
2018-07-08T10:46:35.921Z,43.60
2018-07-08T10:49:04.018Z,43.50
2018-07-08T10:51:32.113Z,43.60
2018-07-08T10:54:00.406Z,43.70
2018-07-08T10:56:28.505Z,44.20
2018-07-08T10:58:56.560Z,43.80
2018-07-08T11:01:24.637Z,43.80
2018-07-08T11:03:52.688Z,44.10
2018-07-08T11:06:20.765Z,44.50
2018-07-08T11:08:48.803Z,44.50
2018-07-08T11:11:16.885Z,44.60
2018-07-08T11:13:44.940Z,44.80
2018-07-08T11:18:40.839Z,44.60
2018-07-08T11:21:08.920Z,44.10
2018-07-08T11:23:36.969Z,44.20
2018-07-08T11:26:05.337Z,44.20
2018-07-08T11:28:33.380Z,44.00
2018-07-08T11:31:01.452Z,44.10
2018-07-08T11:33:29.504Z,43.90
2018-07-08T11:35:57.556Z,43.80
2018-07-08T11:38:25.629Z,43.90
2018-07-08T11:40:54.137Z,44.30
2018-07-08T11:43:22.212Z,43.60
2018-07-08T11:45:50.273Z,43.40
2018-07-08T11:48:18.353Z,43.60
2018-07-08T11:50:46.382Z,44.00
2018-07-08T11:53:14.468Z,44.40
2018-07-08T11:55:42.540Z,44.50
2018-07-08T11:58:16.994Z,43.90
2018-07-08T12:00:45.035Z,44.60
2018-07-08T12:03:13.098Z,44.90
2018-07-08T12:05:41.224Z,44.40
2018-07-08T12:08:11.044Z,44.10
2018-07-08T12:10:39.526Z,44.20
2018-07-08T12:13:07.747Z,44.50
2018-07-08T12:15:35.848Z,44.70
2018-07-08T12:20:31.881Z,45.50
2018-07-08T12:22:59.965Z,45.40
2018-07-08T12:25:28.016Z,45.20
2018-07-08T12:27:56.202Z,45.00
2018-07-08T12:30:24.312Z,45.60
2018-07-08T12:32:52.379Z,46.20
2018-07-08T12:35:20.452Z,46.60
2018-07-08T12:37:48.520Z,46.30
2018-07-08T12:40:16.593Z,45.90
2018-07-08T12:42:44.676Z,46.20
2018-07-08T12:45:12.700Z,46.50
2018-07-08T12:47:40.804Z,46.70
2018-07-08T12:50:08.880Z,46.80
2018-07-08T12:52:36.949Z,47.20
2018-07-08T12:55:05.037Z,47.50
2018-07-08T12:57:33.251Z,47.70
2018-07-08T13:00:01.281Z,47.60
2018-07-08T13:02:29.408Z,47.50
2018-07-08T13:04:57.458Z,47.60
2018-07-08T13:07:25.548Z,47.60
2018-07-08T13:09:53.596Z,47.40
2018-07-08T13:12:21.664Z,47.80
2018-07-08T13:14:49.749Z,47.90
2018-07-08T13:17:17.851Z,48.10
2018-07-08T13:19:45.916Z,47.80
2018-07-08T13:22:13.964Z,47.40
2018-07-08T13:24:42.026Z,47.10
2018-07-08T13:27:10.057Z,47.00
2018-07-08T13:29:38.093Z,47.40
2018-07-08T13:32:06.423Z,48.30
2018-07-08T13:34:34.441Z,47.70
2018-07-08T13:37:02.474Z,47.60
2018-07-08T13:39:30.525Z,47.20
2018-07-08T13:41:58.589Z,47.30
2018-07-08T13:44:26.660Z,47.50
2018-07-08T13:46:54.716Z,47.20
2018-07-08T13:49:22.828Z,47.00
2018-07-08T13:51:50.887Z,47.00
2018-07-08T13:54:19.004Z,47.00
2018-07-08T13:56:47.140Z,46.40
2018-07-08T13:59:15.229Z,46.10
2018-07-08T14:01:43.281Z,45.60
2018-07-08T14:04:11.321Z,45.60
2018-07-08T14:06:39.373Z,45.30
2018-07-08T14:09:07.673Z,45.30
2018-07-08T14:11:36.523Z,44.90
2018-07-08T14:14:04.587Z,44.70
2018-07-08T14:16:32.825Z,44.80
2018-07-08T14:19:00.917Z,44.90
2018-07-08T14:21:28.921Z,44.80
2018-07-08T14:23:56.989Z,44.80
2018-07-08T14:26:25.049Z,44.70
2018-07-08T14:28:53.128Z,44.30
2018-07-08T14:31:21.156Z,44.10
2018-07-08T14:33:49.532Z,44.00
2018-07-08T14:36:17.588Z,43.20
2018-07-08T14:38:45.644Z,43.20
2018-07-08T14:41:13.736Z,43.30
2018-07-08T14:43:41.917Z,43.40
2018-07-08T14:46:10.378Z,43.70
2018-07-08T14:48:38.461Z,43.70
2018-07-08T14:51:06.789Z,43.90
2018-07-08T14:53:34.988Z,44.30
2018-07-08T14:58:30.870Z,45.30
2018-07-08T15:00:59.275Z,45.20
2018-07-08T15:03:27.324Z,45.00
2018-07-08T15:05:55.372Z,45.40
2018-07-08T15:08:23.436Z,45.80
2018-07-08T15:10:51.856Z,45.90
2018-07-08T15:13:19.922Z,45.30
2018-07-08T15:15:48.082Z,45.30
2018-07-08T15:18:16.050Z,45.10
2018-07-08T15:20:44.111Z,45.30
2018-07-08T15:23:12.188Z,45.60
2018-07-08T15:25:40.248Z,46.10
2018-07-08T15:28:08.306Z,46.10
2018-07-08T15:30:36.447Z,46.30
2018-07-08T15:33:04.501Z,46.90
2018-07-08T15:35:32.551Z,47.20
2018-07-08T15:38:00.642Z,47.70
2018-07-08T15:40:28.684Z,47.50
2018-07-08T15:42:56.744Z,47.70
2018-07-08T15:45:24.804Z,47.20
2018-07-08T15:47:52.892Z,46.70
2018-07-08T15:50:20.929Z,46.30
2018-07-08T15:52:48.985Z,46.20
2018-07-08T15:55:17.057Z,46.50
2018-07-08T15:57:45.113Z,46.90
2018-07-08T16:00:13.188Z,46.80
2018-07-08T16:02:41.232Z,47.00
2018-07-08T16:05:09.329Z,47.10
2018-07-08T16:07:37.364Z,46.90
2018-07-08T16:10:05.612Z,47.30
2018-07-08T16:12:33.689Z,47.80
2018-07-08T16:15:01.933Z,48.10
2018-07-08T16:17:30.034Z,47.80
2018-07-08T16:19:58.177Z,47.70
2018-07-08T16:22:26.660Z,48.00
2018-07-08T16:24:54.701Z,48.10
2018-07-08T16:27:22.764Z,48.50
2018-07-08T16:29:50.932Z,47.10
2018-07-08T16:32:19.001Z,46.40
2018-07-08T16:34:47.054Z,46.00
2018-07-08T16:37:15.109Z,46.40
2018-07-08T16:39:43.152Z,47.10
2018-07-08T16:42:11.201Z,47.00
2018-07-08T16:44:39.257Z,46.50
2018-07-08T16:47:07.321Z,47.00
2018-07-08T16:49:35.408Z,47.40
2018-07-08T16:52:03.509Z,46.80
2018-07-08T16:54:31.575Z,46.80
2018-07-08T16:56:59.664Z,46.60
2018-07-08T16:59:27.713Z,47.50
2018-07-08T17:01:55.906Z,48.40
2018-07-08T17:04:23.920Z,48.50
2018-07-08T17:06:51.997Z,48.20
2018-07-08T17:09:20.045Z,48.30
2018-07-08T17:11:48.108Z,48.00
2018-07-08T17:14:16.200Z,48.30
2018-07-08T17:16:44.361Z,48.00
2018-07-08T17:19:12.385Z,47.90
2018-07-08T17:21:40.416Z,48.10
2018-07-08T17:24:08.473Z,48.00
2018-07-08T17:26:36.987Z,48.20
2018-07-08T17:29:05.080Z,48.60
2018-07-08T17:31:33.118Z,48.50
2018-07-08T17:34:01.165Z,48.80
2018-07-08T17:36:29.524Z,49.30
2018-07-08T17:38:57.573Z,50.30
2018-07-08T17:41:25.624Z,49.10
2018-07-08T17:43:53.776Z,49.60
2018-07-08T17:46:22.137Z,49.70
2018-07-08T17:48:50.188Z,49.90
2018-07-08T17:51:18.217Z,49.80
2018-07-08T17:56:14.680Z,49.90
2018-07-08T18:00:11.997Z,49.60
2018-07-08T18:02:40.041Z,50.00
2018-07-08T18:05:08.105Z,50.30
2018-07-08T18:07:36.156Z,50.50
2018-07-08T18:10:04.219Z,50.60
2018-07-08T18:12:32.484Z,50.50
2018-07-08T18:15:00.534Z,50.80
2018-07-08T18:19:56.456Z,51.30
2018-07-08T18:22:24.535Z,52.00
2018-07-08T18:24:52.577Z,51.60
2018-07-08T18:27:20.620Z,51.50
2018-07-08T18:29:48.702Z,51.40
2018-07-08T18:32:16.753Z,51.30
2018-07-08T18:34:44.817Z,51.40
2018-07-08T18:37:12.901Z,51.80
2018-07-08T18:39:41.553Z,52.70
2018-07-08T18:42:09.636Z,53.70
2018-07-08T18:44:37.684Z,54.80
2018-07-08T18:47:05.799Z,54.40
2018-07-08T18:49:33.880Z,54.40
2018-07-08T18:52:01.961Z,54.60
2018-07-08T18:54:30.028Z,55.20
2018-07-08T18:56:58.095Z,55.50
2018-07-08T18:59:26.240Z,55.30
2018-07-08T19:01:54.322Z,55.40
2018-07-08T19:04:22.385Z,55.90
2018-07-08T19:06:50.416Z,56.30
2018-07-08T19:09:18.517Z,56.30
2018-07-08T19:11:53.510Z,56.70
2018-07-08T19:14:21.672Z,56.80
2018-07-08T19:16:49.991Z,56.90
2018-07-08T19:19:18.113Z,57.00
2018-07-08T19:21:46.173Z,57.00
2018-07-08T19:24:14.384Z,57.30
2018-07-08T19:26:43.471Z,58.00
2018-07-08T19:29:11.529Z,58.60
2018-07-08T19:31:40.561Z,58.30
2018-07-08T19:34:09.536Z,58.50
2018-07-08T19:36:37.749Z,59.30
2018-07-08T19:39:06.572Z,60.30
2018-07-08T19:41:35.910Z,60.90
2018-07-08T19:44:03.997Z,61.90
2018-07-08T19:46:32.393Z,62.80
2018-07-08T19:49:00.779Z,63.70
2018-07-08T19:51:28.972Z,64.20
2018-07-08T19:53:57.085Z,64.60
2018-07-08T19:56:25.197Z,64.80
2018-07-08T19:58:53.766Z,65.40
2018-07-08T20:01:22.640Z,66.50
2018-07-08T20:03:50.873Z,67.10
2018-07-08T20:06:18.929Z,67.20
2018-07-08T20:08:46.973Z,67.10
2018-07-08T20:11:15.034Z,67.20
2018-07-08T20:13:43.126Z,67.60
2018-07-08T20:16:11.208Z,68.10
2018-07-08T20:18:39.281Z,68.60
2018-07-08T20:21:07.549Z,68.80
2018-07-08T20:23:35.664Z,69.30
2018-07-08T20:26:04.691Z,69.70
2018-07-08T20:28:32.787Z,69.90
2018-07-08T20:31:01.503Z,70.20
2018-07-08T20:33:29.976Z,70.60
2018-07-08T20:35:58.506Z,71.30
2018-07-08T20:38:26.708Z,71.60
2018-07-08T20:40:55.145Z,71.70
2018-07-08T20:43:23.420Z,72.20
2018-07-08T20:45:51.652Z,72.50
2018-07-08T20:48:19.726Z,72.70
2018-07-08T20:50:47.902Z,73.10
2018-07-08T20:53:16.603Z,73.70
2018-07-08T20:55:51.433Z,73.80
2018-07-08T20:58:19.897Z,74.40
2018-07-08T21:00:48.122Z,74.90
2018-07-08T21:03:16.406Z,75.30
2018-07-08T21:05:44.476Z,75.20
2018-07-08T21:08:12.668Z,75.50
2018-07-08T21:10:40.783Z,75.60
2018-07-08T21:13:08.868Z,75.60
2018-07-08T21:15:36.913Z,75.50
2018-07-08T21:20:33.181Z,76.10
2018-07-08T21:23:01.895Z,76.10
2018-07-08T21:25:31.782Z,76.30
2018-07-08T21:28:00.801Z,76.40
2018-07-08T21:30:29.812Z,76.50
2018-07-08T21:32:57.934Z,76.80
2018-07-08T21:35:25.989Z,77.20
2018-07-08T21:37:54.764Z,77.30
2018-07-08T21:40:22.802Z,77.60
2018-07-08T21:42:50.888Z,77.70
2018-07-08T21:45:18.998Z,78.00
2018-07-08T21:47:47.165Z,78.10
2018-07-08T21:50:15.301Z,78.30
2018-07-08T21:55:11.321Z,79.00
2018-07-08T21:57:39.453Z,78.70
2018-07-08T22:05:03.488Z,79.30
2018-07-08T22:07:37.201Z,79.40
2018-07-08T22:10:05.710Z,79.30
2018-07-08T22:12:33.770Z,79.40
2018-07-08T22:15:01.846Z,79.60
2018-07-08T22:17:29.913Z,79.60
2018-07-08T22:19:58.707Z,79.40
2018-07-08T22:22:27.509Z,79.50
2018-07-08T22:24:55.888Z,79.50
2018-07-08T22:27:24.012Z,79.30
2018-07-08T22:29:52.136Z,79.30
2018-07-08T22:32:20.204Z,79.60
2018-07-08T22:34:48.261Z,80.00
2018-07-08T22:37:16.385Z,80.20
2018-07-08T22:39:44.442Z,80.40
2018-07-08T22:42:12.618Z,80.30
2018-07-08T22:44:40.765Z,80.40
2018-07-08T22:47:08.821Z,80.50
2018-07-08T22:49:37.109Z,80.80
2018-07-08T22:52:05.223Z,81.00
2018-07-08T22:54:33.299Z,81.20
2018-07-08T22:57:01.366Z,81.40
2018-07-08T22:59:30.252Z,82.40
2018-07-08T23:02:09.963Z,82.10
2018-07-08T23:04:38.039Z,82.40
2018-07-08T23:07:06.073Z,82.70
2018-07-08T23:09:34.153Z,82.90
2018-07-08T23:12:02.243Z,83.00
2018-07-08T23:14:30.264Z,83.00
2018-07-08T23:16:58.513Z,83.10
2018-07-08T23:19:26.637Z,83.30
2018-07-08T23:21:56.102Z,83.50
2018-07-08T23:24:24.173Z,83.80
2018-07-08T23:26:52.204Z,83.90
2018-07-08T23:29:20.413Z,84.30
2018-07-08T23:31:48.631Z,84.60
2018-07-08T23:34:16.687Z,84.80
2018-07-08T23:36:44.756Z,85.00
2018-07-08T23:39:16.114Z,85.10
2018-07-08T23:41:44.215Z,85.30
2018-07-08T23:44:12.244Z,85.60
2018-07-08T23:46:40.298Z,85.40
2018-07-08T23:49:08.385Z,85.60
2018-07-08T23:51:36.504Z,85.90
2018-07-08T23:54:05.617Z,85.90
2018-07-08T23:56:33.645Z,86.10
2018-07-08T23:59:01.702Z,85.90
